sensor_id;sensor_type;location;lat;lon;timestamp;P1;durP1;ratioP1;P2;durP2;ratioP2
82554;SDS011;72219;48.186;11.554;2023-12-29T00:01:59;4.95;;;1.70;;
82554;SDS011;72219;48.186;11.554;2023-12-29T00:04:25;3.95;;;1.60;;
82554;SDS011;72219;48.186;11.554;2023-12-29T00:06:51;3.33;;;1.73;;
82554;SDS011;72219;48.186;11.554;2023-12-29T00:09:16;2.17;;;1.45;;
82554;SDS011;72219;48.186;11.554;2023-12-29T00:11:42;2.78;;;1.80;;
82554;SDS011;72219;48.186;11.554;2023-12-29T00:14:08;3.67;;;1.88;;
82554;SDS011;72219;48.186;11.554;2023-12-29T00:16:33;2.90;;;1.60;;
82554;SDS011;72219;48.186;11.554;2023-12-29T00:18:58;3.05;;;1.45;;
82554;SDS011;72219;48.186;11.554;2023-12-29T00:21:24;2.63;;;1.52;;
82554;SDS011;72219;48.186;11.554;2023-12-29T00:23:49;2.78;;;1.80;;
82554;SDS011;72219;48.186;11.554;2023-12-29T00:26:17;2.22;;;1.42;;
82554;SDS011;72219;48.186;11.554;2023-12-29T00:28:43;1.80;;;1.65;;
82554;SDS011;72219;48.186;11.554;2023-12-29T00:31:13;2.33;;;1.80;;
82554;SDS011;72219;48.186;11.554;2023-12-29T00:33:41;2.63;;;1.63;;
82554;SDS011;72219;48.186;11.554;2023-12-29T00:36:13;2.13;;;1.30;;
82554;SDS011;72219;48.186;11.554;2023-12-29T00:38:46;2.80;;;1.42;;
82554;SDS011;72219;48.186;11.554;2023-12-29T00:41:11;3.10;;;1.73;;
82554;SDS011;72219;48.186;11.554;2023-12-29T00:43:37;4.20;;;1.70;;
82554;SDS011;72219;48.186;11.554;2023-12-29T00:46:03;3.65;;;1.65;;
82554;SDS011;72219;48.186;11.554;2023-12-29T00:48:30;2.35;;;1.48;;
82554;SDS011;72219;48.186;11.554;2023-12-29T00:51:01;1.85;;;1.27;;
82554;SDS011;72219;48.186;11.554;2023-12-29T00:53:28;5.60;;;1.92;;
82554;SDS011;72219;48.186;11.554;2023-12-29T00:55:54;2.45;;;1.10;;
82554;SDS011;72219;48.186;11.554;2023-12-29T00:58:20;3.08;;;1.60;;
82554;SDS011;72219;48.186;11.554;2023-12-29T01:00:46;1.73;;;1.33;;
82554;SDS011;72219;48.186;11.554;2023-12-29T01:03:14;3.20;;;1.52;;
82554;SDS011;72219;48.186;11.554;2023-12-29T01:05:41;2.33;;;1.42;;
82554;SDS011;72219;48.186;11.554;2023-12-29T01:08:06;2.22;;;1.30;;
82554;SDS011;72219;48.186;11.554;2023-12-29T01:10:33;5.38;;;1.63;;
82554;SDS011;72219;48.186;11.554;2023-12-29T01:12:58;1.70;;;1.20;;
82554;SDS011;72219;48.186;11.554;2023-12-29T01:15:24;1.70;;;1.40;;
82554;SDS011;72219;48.186;11.554;2023-12-29T01:17:49;2.47;;;1.50;;
82554;SDS011;72219;48.186;11.554;2023-12-29T01:20:14;2.63;;;1.42;;
82554;SDS011;72219;48.186;11.554;2023-12-29T01:22:40;1.75;;;1.40;;
82554;SDS011;72219;48.186;11.554;2023-12-29T01:25:05;1.95;;;1.50;;
82554;SDS011;72219;48.186;11.554;2023-12-29T01:27:31;3.03;;;1.83;;
82554;SDS011;72219;48.186;11.554;2023-12-29T01:29:57;3.35;;;1.60;;
82554;SDS011;72219;48.186;11.554;2023-12-29T01:32:23;2.55;;;1.50;;
82554;SDS011;72219;48.186;11.554;2023-12-29T01:34:48;2.38;;;1.35;;
82554;SDS011;72219;48.186;11.554;2023-12-29T01:37:13;1.23;;;1.10;;
82554;SDS011;72219;48.186;11.554;2023-12-29T01:39:39;6.93;;;1.85;;
82554;SDS011;72219;48.186;11.554;2023-12-29T01:42:08;1.85;;;1.40;;
82554;SDS011;72219;48.186;11.554;2023-12-29T01:44:33;3.08;;;1.25;;
82554;SDS011;72219;48.186;11.554;2023-12-29T01:46:59;2.10;;;1.38;;
82554;SDS011;72219;48.186;11.554;2023-12-29T01:49:25;2.55;;;1.40;;
82554;SDS011;72219;48.186;11.554;2023-12-29T01:51:56;2.10;;;1.35;;
82554;SDS011;72219;48.186;11.554;2023-12-29T01:54:26;3.80;;;1.55;;
82554;SDS011;72219;48.186;11.554;2023-12-29T01:56:54;2.30;;;1.50;;
82554;SDS011;72219;48.186;11.554;2023-12-29T01:59:23;1.90;;;1.30;;
82554;SDS011;72219;48.186;11.554;2023-12-29T02:01:50;3.45;;;1.88;;
82554;SDS011;72219;48.186;11.554;2023-12-29T02:04:15;3.03;;;1.52;;
82554;SDS011;72219;48.186;11.554;2023-12-29T02:06:43;3.03;;;1.50;;
82554;SDS011;72219;48.186;11.554;2023-12-29T02:09:08;6.53;;;1.60;;
82554;SDS011;72219;48.186;11.554;2023-12-29T02:11:34;2.08;;;1.30;;
82554;SDS011;72219;48.186;11.554;2023-12-29T02:13:59;1.88;;;1.20;;
82554;SDS011;72219;48.186;11.554;2023-12-29T02:18:55;2.63;;;1.42;;
82554;SDS011;72219;48.186;11.554;2023-12-29T02:21:25;3.05;;;1.38;;
82554;SDS011;72219;48.186;11.554;2023-12-29T02:23:50;1.15;;;1.00;;
82554;SDS011;72219;48.186;11.554;2023-12-29T02:26:16;1.83;;;1.35;;
82554;SDS011;72219;48.186;11.554;2023-12-29T02:28:48;3.50;;;1.60;;
82554;SDS011;72219;48.186;11.554;2023-12-29T02:31:23;3.20;;;1.35;;
82554;SDS011;72219;48.186;11.554;2023-12-29T02:33:52;2.72;;;1.30;;
82554;SDS011;72219;48.186;11.554;2023-12-29T02:36:18;1.95;;;1.42;;
82554;SDS011;72219;48.186;11.554;2023-12-29T02:38:46;2.97;;;1.92;;
82554;SDS011;72219;48.186;11.554;2023-12-29T02:41:12;1.35;;;1.10;;
82554;SDS011;72219;48.186;11.554;2023-12-29T02:43:38;1.98;;;1.27;;
82554;SDS011;72219;48.186;11.554;2023-12-29T02:46:03;1.20;;;1.00;;
82554;SDS011;72219;48.186;11.554;2023-12-29T02:48:29;2.08;;;1.55;;
82554;SDS011;72219;48.186;11.554;2023-12-29T02:50:54;2.03;;;1.42;;
82554;SDS011;72219;48.186;11.554;2023-12-29T02:53:20;2.47;;;1.45;;
82554;SDS011;72219;48.186;11.554;2023-12-29T02:55:46;1.50;;;1.40;;
82554;SDS011;72219;48.186;11.554;2023-12-29T02:58:12;3.55;;;1.75;;
82554;SDS011;72219;48.186;11.554;2023-12-29T03:00:38;1.48;;;1.13;;
82554;SDS011;72219;48.186;11.554;2023-12-29T03:03:04;1.60;;;1.30;;
82554;SDS011;72219;48.186;11.554;2023-12-29T03:05:30;1.80;;;1.27;;
82554;SDS011;72219;48.186;11.554;2023-12-29T03:07:55;3.35;;;1.55;;
82554;SDS011;72219;48.186;11.554;2023-12-29T03:10:22;2.38;;;1.10;;
82554;SDS011;72219;48.186;11.554;2023-12-29T03:12:48;2.72;;;1.23;;
82554;SDS011;72219;48.186;11.554;2023-12-29T03:15:13;2.08;;;1.48;;
82554;SDS011;72219;48.186;11.554;2023-12-29T03:17:39;1.90;;;1.70;;
82554;SDS011;72219;48.186;11.554;2023-12-29T03:20:04;1.65;;;1.20;;
82554;SDS011;72219;48.186;11.554;2023-12-29T03:22:30;3.05;;;1.85;;
82554;SDS011;72219;48.186;11.554;2023-12-29T03:24:56;1.48;;;1.30;;
82554;SDS011;72219;48.186;11.554;2023-12-29T03:27:22;4.93;;;1.42;;
82554;SDS011;72219;48.186;11.554;2023-12-29T03:29:47;1.83;;;1.25;;
82554;SDS011;72219;48.186;11.554;2023-12-29T03:32:13;2.72;;;1.30;;
82554;SDS011;72219;48.186;11.554;2023-12-29T03:34:40;2.33;;;1.55;;
82554;SDS011;72219;48.186;11.554;2023-12-29T03:37:05;1.67;;;1.30;;
82554;SDS011;72219;48.186;11.554;2023-12-29T03:39:31;1.20;;;1.10;;
82554;SDS011;72219;48.186;11.554;2023-12-29T03:42:00;2.17;;;1.58;;
82554;SDS011;72219;48.186;11.554;2023-12-29T03:44:27;2.08;;;1.25;;
82554;SDS011;72219;48.186;11.554;2023-12-29T03:46:53;2.33;;;1.17;;
82554;SDS011;72219;48.186;11.554;2023-12-29T03:49:18;1.33;;;1.23;;
82554;SDS011;72219;48.186;11.554;2023-12-29T03:51:44;1.90;;;1.20;;
82554;SDS011;72219;48.186;11.554;2023-12-29T03:54:11;1.83;;;1.25;;
82554;SDS011;72219;48.186;11.554;2023-12-29T03:56:39;1.42;;;0.98;;
82554;SDS011;72219;48.186;11.554;2023-12-29T03:59:04;2.10;;;1.20;;
82554;SDS011;72219;48.186;11.554;2023-12-29T04:01:32;1.55;;;1.25;;
82554;SDS011;72219;48.186;11.554;2023-12-29T04:03:58;2.13;;;1.30;;
82554;SDS011;72219;48.186;11.554;2023-12-29T04:06:25;1.67;;;1.27;;
82554;SDS011;72219;48.186;11.554;2023-12-29T04:08:50;1.10;;;1.00;;
82554;SDS011;72219;48.186;11.554;2023-12-29T04:11:16;2.75;;;1.25;;
82554;SDS011;72219;48.186;11.554;2023-12-29T04:13:41;1.08;;;0.95;;
82554;SDS011;72219;48.186;11.554;2023-12-29T04:16:06;1.50;;;1.08;;
82554;SDS011;72219;48.186;11.554;2023-12-29T04:18:32;1.98;;;1.20;;
82554;SDS011;72219;48.186;11.554;2023-12-29T04:20:57;1.88;;;1.23;;
82554;SDS011;72219;48.186;11.554;2023-12-29T04:23:22;1.20;;;1.10;;
82554;SDS011;72219;48.186;11.554;2023-12-29T04:25:48;1.60;;;1.25;;
82554;SDS011;72219;48.186;11.554;2023-12-29T04:28:14;1.58;;;1.17;;
82554;SDS011;72219;48.186;11.554;2023-12-29T04:30:40;3.58;;;1.80;;
82554;SDS011;72219;48.186;11.554;2023-12-29T04:33:05;1.95;;;1.10;;
82554;SDS011;72219;48.186;11.554;2023-12-29T04:35:30;2.50;;;1.20;;
82554;SDS011;72219;48.186;11.554;2023-12-29T04:37:56;1.73;;;1.55;;
82554;SDS011;72219;48.186;11.554;2023-12-29T04:40:22;1.63;;;1.15;;
82554;SDS011;72219;48.186;11.554;2023-12-29T04:42:47;2.28;;;1.38;;
82554;SDS011;72219;48.186;11.554;2023-12-29T04:45:13;2.20;;;1.40;;
82554;SDS011;72219;48.186;11.554;2023-12-29T04:47:38;1.15;;;1.05;;
82554;SDS011;72219;48.186;11.554;2023-12-29T04:50:04;1.10;;;1.00;;
82554;SDS011;72219;48.186;11.554;2023-12-29T04:52:33;1.63;;;1.35;;
82554;SDS011;72219;48.186;11.554;2023-12-29T04:54:59;2.33;;;1.60;;
82554;SDS011;72219;48.186;11.554;2023-12-29T04:57:24;1.92;;;1.25;;
82554;SDS011;72219;48.186;11.554;2023-12-29T04:59:50;1.48;;;1.08;;
82554;SDS011;72219;48.186;11.554;2023-12-29T05:02:15;1.70;;;1.20;;
82554;SDS011;72219;48.186;11.554;2023-12-29T05:04:40;1.88;;;1.27;;
82554;SDS011;72219;48.186;11.554;2023-12-29T05:07:08;1.85;;;1.02;;
82554;SDS011;72219;48.186;11.554;2023-12-29T05:09:34;1.92;;;1.33;;
82554;SDS011;72219;48.186;11.554;2023-12-29T05:11:59;1.38;;;1.13;;
82554;SDS011;72219;48.186;11.554;2023-12-29T05:14:26;1.10;;;1.00;;
82554;SDS011;72219;48.186;11.554;2023-12-29T05:16:51;1.88;;;1.20;;
82554;SDS011;72219;48.186;11.554;2023-12-29T05:19:18;3.05;;;1.40;;
82554;SDS011;72219;48.186;11.554;2023-12-29T05:21:43;1.77;;;1.27;;
82554;SDS011;72219;48.186;11.554;2023-12-29T05:24:09;0.93;;;0.88;;
82554;SDS011;72219;48.186;11.554;2023-12-29T05:26:34;1.50;;;1.15;;
82554;SDS011;72219;48.186;11.554;2023-12-29T05:29:00;1.40;;;1.15;;
82554;SDS011;72219;48.186;11.554;2023-12-29T05:31:26;1.27;;;1.17;;
82554;SDS011;72219;48.186;11.554;2023-12-29T05:33:53;1.20;;;1.02;;
82554;SDS011;72219;48.186;11.554;2023-12-29T05:36:20;1.00;;;0.90;;
82554;SDS011;72219;48.186;11.554;2023-12-29T05:38:45;1.67;;;1.30;;
82554;SDS011;72219;48.186;11.554;2023-12-29T05:41:14;1.38;;;1.08;;
82554;SDS011;72219;48.186;11.554;2023-12-29T05:43:39;1.42;;;1.20;;
82554;SDS011;72219;48.186;11.554;2023-12-29T05:46:11;2.10;;;1.25;;
82554;SDS011;72219;48.186;11.554;2023-12-29T05:48:37;1.65;;;1.27;;
82554;SDS011;72219;48.186;11.554;2023-12-29T05:51:07;1.10;;;1.00;;
82554;SDS011;72219;48.186;11.554;2023-12-29T05:53:38;1.95;;;1.30;;
82554;SDS011;72219;48.186;11.554;2023-12-29T05:56:05;0.88;;;0.75;;
82554;SDS011;72219;48.186;11.554;2023-12-29T05:58:30;1.67;;;1.38;;
82554;SDS011;72219;48.186;11.554;2023-12-29T06:00:56;1.30;;;0.88;;
82554;SDS011;72219;48.186;11.554;2023-12-29T06:03:26;1.50;;;1.40;;
82554;SDS011;72219;48.186;11.554;2023-12-29T06:05:51;0.75;;;0.73;;
82554;SDS011;72219;48.186;11.554;2023-12-29T06:08:17;1.40;;;1.30;;
82554;SDS011;72219;48.186;11.554;2023-12-29T06:10:42;2.05;;;1.30;;
82554;SDS011;72219;48.186;11.554;2023-12-29T06:13:08;1.30;;;1.10;;
82554;SDS011;72219;48.186;11.554;2023-12-29T06:15:34;2.38;;;1.20;;
82554;SDS011;72219;48.186;11.554;2023-12-29T06:18:01;1.10;;;1.00;;
82554;SDS011;72219;48.186;11.554;2023-12-29T06:20:27;1.52;;;1.00;;
82554;SDS011;72219;48.186;11.554;2023-12-29T06:22:53;2.47;;;1.00;;
82554;SDS011;72219;48.186;11.554;2023-12-29T06:25:18;2.20;;;1.17;;
82554;SDS011;72219;48.186;11.554;2023-12-29T06:27:44;1.02;;;0.93;;
82554;SDS011;72219;48.186;11.554;2023-12-29T06:30:11;1.15;;;1.00;;
82554;SDS011;72219;48.186;11.554;2023-12-29T06:32:37;1.60;;;1.10;;
82554;SDS011;72219;48.186;11.554;2023-12-29T06:35:03;1.90;;;1.23;;
82554;SDS011;72219;48.186;11.554;2023-12-29T06:37:29;1.42;;;1.20;;
82554;SDS011;72219;48.186;11.554;2023-12-29T06:39:54;1.23;;;0.93;;
82554;SDS011;72219;48.186;11.554;2023-12-29T06:42:21;1.75;;;1.23;;
82554;SDS011;72219;48.186;11.554;2023-12-29T06:44:47;1.65;;;1.30;;
82554;SDS011;72219;48.186;11.554;2023-12-29T06:47:13;3.30;;;1.50;;
82554;SDS011;72219;48.186;11.554;2023-12-29T06:49:40;0.82;;;0.80;;
82554;SDS011;72219;48.186;11.554;2023-12-29T06:52:06;1.63;;;1.50;;
82554;SDS011;72219;48.186;11.554;2023-12-29T06:54:33;1.10;;;1.00;;
82554;SDS011;72219;48.186;11.554;2023-12-29T06:57:00;2.17;;;1.15;;
82554;SDS011;72219;48.186;11.554;2023-12-29T06:59:26;1.33;;;1.00;;
82554;SDS011;72219;48.186;11.554;2023-12-29T07:01:51;2.10;;;1.35;;
82554;SDS011;72219;48.186;11.554;2023-12-29T07:04:17;1.42;;;0.90;;
82554;SDS011;72219;48.186;11.554;2023-12-29T07:06:45;1.20;;;1.10;;
82554;SDS011;72219;48.186;11.554;2023-12-29T07:09:11;1.13;;;0.95;;
82554;SDS011;72219;48.186;11.554;2023-12-29T07:11:36;1.45;;;1.02;;
82554;SDS011;72219;48.186;11.554;2023-12-29T07:14:02;1.42;;;1.00;;
82554;SDS011;72219;48.186;11.554;2023-12-29T07:16:30;1.50;;;1.20;;
82554;SDS011;72219;48.186;11.554;2023-12-29T07:18:57;3.08;;;1.00;;
82554;SDS011;72219;48.186;11.554;2023-12-29T07:21:22;1.00;;;1.00;;
82554;SDS011;72219;48.186;11.554;2023-12-29T07:23:47;1.27;;;1.17;;
82554;SDS011;72219;48.186;11.554;2023-12-29T07:26:14;2.03;;;1.20;;
82554;SDS011;72219;48.186;11.554;2023-12-29T07:28:39;1.52;;;1.13;;
82554;SDS011;72219;48.186;11.554;2023-12-29T07:31:05;0.93;;;0.93;;
82554;SDS011;72219;48.186;11.554;2023-12-29T07:33:30;1.17;;;1.00;;
82554;SDS011;72219;48.186;11.554;2023-12-29T07:35:56;1.02;;;0.90;;
82554;SDS011;72219;48.186;11.554;2023-12-29T07:38:21;2.78;;;1.00;;
82554;SDS011;72219;48.186;11.554;2023-12-29T07:40:46;1.65;;;1.00;;
82554;SDS011;72219;48.186;11.554;2023-12-29T07:43:13;1.65;;;1.17;;
82554;SDS011;72219;48.186;11.554;2023-12-29T07:45:41;0.75;;;0.73;;
82554;SDS011;72219;48.186;11.554;2023-12-29T07:48:08;1.77;;;1.10;;
82554;SDS011;72219;48.186;11.554;2023-12-29T07:50:33;1.65;;;1.23;;
82554;SDS011;72219;48.186;11.554;2023-12-29T07:52:59;1.35;;;1.17;;
82554;SDS011;72219;48.186;11.554;2023-12-29T07:55:27;1.00;;;1.00;;
82554;SDS011;72219;48.186;11.554;2023-12-29T07:57:53;1.70;;;1.17;;
82554;SDS011;72219;48.186;11.554;2023-12-29T08:00:19;1.05;;;0.90;;
82554;SDS011;72219;48.186;11.554;2023-12-29T08:02:44;1.25;;;0.73;;
82554;SDS011;72219;48.186;11.554;2023-12-29T08:05:10;1.00;;;0.90;;
82554;SDS011;72219;48.186;11.554;2023-12-29T08:07:35;1.55;;;1.10;;
82554;SDS011;72219;48.186;11.554;2023-12-29T08:10:04;2.45;;;1.35;;
82554;SDS011;72219;48.186;11.554;2023-12-29T08:12:30;1.45;;;1.10;;
82554;SDS011;72219;48.186;11.554;2023-12-29T08:14:58;2.13;;;1.00;;
82554;SDS011;72219;48.186;11.554;2023-12-29T08:17:23;2.13;;;1.10;;
82554;SDS011;72219;48.186;11.554;2023-12-29T08:19:49;1.60;;;1.17;;
82554;SDS011;72219;48.186;11.554;2023-12-29T08:22:14;5.20;;;1.33;;
82554;SDS011;72219;48.186;11.554;2023-12-29T08:24:40;18.73;;;1.65;;
82554;SDS011;72219;48.186;11.554;2023-12-29T08:27:26;3.67;;;1.30;;
82554;SDS011;72219;48.186;11.554;2023-12-29T08:29:51;7.38;;;1.60;;
82554;SDS011;72219;48.186;11.554;2023-12-29T08:32:18;7.38;;;1.45;;
82554;SDS011;72219;48.186;11.554;2023-12-29T08:34:43;17.38;;;3.60;;
82554;SDS011;72219;48.186;11.554;2023-12-29T08:37:09;10.02;;;2.33;;
82554;SDS011;72219;48.186;11.554;2023-12-29T08:39:34;10.98;;;1.80;;
82554;SDS011;72219;48.186;11.554;2023-12-29T08:41:59;8.13;;;2.22;;
82554;SDS011;72219;48.186;11.554;2023-12-29T08:44:25;6.53;;;1.40;;
82554;SDS011;72219;48.186;11.554;2023-12-29T08:46:50;2.45;;;1.33;;
82554;SDS011;72219;48.186;11.554;2023-12-29T08:49:16;9.65;;;1.88;;
82554;SDS011;72219;48.186;11.554;2023-12-29T08:51:42;8.65;;;1.60;;
82554;SDS011;72219;48.186;11.554;2023-12-29T08:54:07;4.15;;;1.75;;
82554;SDS011;72219;48.186;11.554;2023-12-29T08:56:32;3.55;;;1.42;;
82554;SDS011;72219;48.186;11.554;2023-12-29T08:58:58;5.88;;;1.23;;
82554;SDS011;72219;48.186;11.554;2023-12-29T09:01:23;3.83;;;1.83;;
82554;SDS011;72219;48.186;11.554;2023-12-29T09:03:48;4.32;;;1.55;;
82554;SDS011;72219;48.186;11.554;2023-12-29T09:06:14;3.67;;;1.20;;
82554;SDS011;72219;48.186;11.554;2023-12-29T09:08:40;3.90;;;1.30;;
82554;SDS011;72219;48.186;11.554;2023-12-29T09:11:07;3.17;;;1.42;;
82554;SDS011;72219;48.186;11.554;2023-12-29T09:13:33;2.92;;;1.67;;
82554;SDS011;72219;48.186;11.554;2023-12-29T09:15:58;5.28;;;1.83;;
82554;SDS011;72219;48.186;11.554;2023-12-29T09:18:24;3.35;;;1.58;;
82554;SDS011;72219;48.186;11.554;2023-12-29T09:20:50;1.65;;;1.30;;
82554;SDS011;72219;48.186;11.554;2023-12-29T09:23:15;1.95;;;1.45;;
82554;SDS011;72219;48.186;11.554;2023-12-29T09:25:42;4.45;;;1.60;;
82554;SDS011;72219;48.186;11.554;2023-12-29T09:28:07;7.72;;;3.00;;
82554;SDS011;72219;48.186;11.554;2023-12-29T09:30:33;8.98;;;3.78;;
82554;SDS011;72219;48.186;11.554;2023-12-29T09:32:58;10.88;;;4.05;;
82554;SDS011;72219;48.186;11.554;2023-12-29T09:35:23;10.13;;;4.07;;
82554;SDS011;72219;48.186;11.554;2023-12-29T09:37:50;11.35;;;3.97;;
82554;SDS011;72219;48.186;11.554;2023-12-29T09:40:15;9.05;;;4.70;;
82554;SDS011;72219;48.186;11.554;2023-12-29T09:42:44;8.18;;;4.43;;
82554;SDS011;72219;48.186;11.554;2023-12-29T09:45:11;17.05;;;4.90;;
82554;SDS011;72219;48.186;11.554;2023-12-29T09:47:41;11.52;;;4.93;;
82554;SDS011;72219;48.186;11.554;2023-12-29T09:50:09;10.25;;;3.80;;
82554;SDS011;72219;48.186;11.554;2023-12-29T09:52:36;15.18;;;5.53;;
82554;SDS011;72219;48.186;11.554;2023-12-29T09:55:03;10.88;;;6.30;;
82554;SDS011;72219;48.186;11.554;2023-12-29T09:57:30;12.48;;;5.55;;
82554;SDS011;72219;48.186;11.554;2023-12-29T09:59:55;13.00;;;4.85;;
82554;SDS011;72219;48.186;11.554;2023-12-29T10:02:22;19.30;;;6.13;;
82554;SDS011;72219;48.186;11.554;2023-12-29T10:04:48;21.27;;;7.47;;
82554;SDS011;72219;48.186;11.554;2023-12-29T10:07:35;20.48;;;7.80;;
82554;SDS011;72219;48.186;11.554;2023-12-29T10:10:03;24.55;;;8.00;;
82554;SDS011;72219;48.186;11.554;2023-12-29T10:12:29;24.20;;;9.00;;
82554;SDS011;72219;48.186;11.554;2023-12-29T10:17:48;28.67;;;9.27;;
82554;SDS011;72219;48.186;11.554;2023-12-29T10:23:38;22.98;;;10.27;;
82554;SDS011;72219;48.186;11.554;2023-12-29T10:26:10;20.38;;;10.18;;
82554;SDS011;72219;48.186;11.554;2023-12-29T10:28:36;21.42;;;11.57;;
82554;SDS011;72219;48.186;11.554;2023-12-29T10:31:03;21.08;;;10.82;;
82554;SDS011;72219;48.186;11.554;2023-12-29T10:33:29;22.30;;;10.57;;
82554;SDS011;72219;48.186;11.554;2023-12-29T10:35:57;22.70;;;10.88;;
82554;SDS011;72219;48.186;11.554;2023-12-29T10:38:27;20.05;;;10.43;;
82554;SDS011;72219;48.186;11.554;2023-12-29T10:40:53;23.33;;;9.88;;
82554;SDS011;72219;48.186;11.554;2023-12-29T10:43:24;18.52;;;9.52;;
82554;SDS011;72219;48.186;11.554;2023-12-29T10:45:49;16.80;;;8.68;;
82554;SDS011;72219;48.186;11.554;2023-12-29T10:48:31;20.80;;;9.07;;
82554;SDS011;72219;48.186;11.554;2023-12-29T10:50:56;17.95;;;9.05;;
82554;SDS011;72219;48.186;11.554;2023-12-29T10:53:22;15.82;;;8.50;;
82554;SDS011;72219;48.186;11.554;2023-12-29T10:55:48;19.98;;;8.10;;
82554;SDS011;72219;48.186;11.554;2023-12-29T10:58:15;18.67;;;8.13;;
82554;SDS011;72219;48.186;11.554;2023-12-29T11:00:42;19.25;;;8.82;;
82554;SDS011;72219;48.186;11.554;2023-12-29T11:03:07;18.45;;;7.15;;
82554;SDS011;72219;48.186;11.554;2023-12-29T11:05:32;16.92;;;8.25;;
82554;SDS011;72219;48.186;11.554;2023-12-29T11:07:58;18.45;;;7.82;;
82554;SDS011;72219;48.186;11.554;2023-12-29T11:10:24;20.33;;;8.45;;
82554;SDS011;72219;48.186;11.554;2023-12-29T11:12:50;16.63;;;8.23;;
82554;SDS011;72219;48.186;11.554;2023-12-29T11:15:18;22.88;;;7.45;;
82554;SDS011;72219;48.186;11.554;2023-12-29T11:17:44;14.55;;;7.32;;
82554;SDS011;72219;48.186;11.554;2023-12-29T11:20:15;17.67;;;7.95;;
82554;SDS011;72219;48.186;11.554;2023-12-29T11:22:42;16.08;;;7.13;;
82554;SDS011;72219;48.186;11.554;2023-12-29T11:25:08;14.95;;;7.93;;
82554;SDS011;72219;48.186;11.554;2023-12-29T11:27:34;15.27;;;7.57;;
82554;SDS011;72219;48.186;11.554;2023-12-29T11:30:00;13.68;;;6.75;;
82554;SDS011;72219;48.186;11.554;2023-12-29T11:32:30;14.40;;;7.38;;
82554;SDS011;72219;48.186;11.554;2023-12-29T11:35:24;11.48;;;6.35;;
82554;SDS011;72219;48.186;11.554;2023-12-29T11:43:15;13.63;;;6.63;;
82554;SDS011;72219;48.186;11.554;2023-12-29T11:45:42;9.88;;;6.30;;
82554;SDS011;72219;48.186;11.554;2023-12-29T11:48:09;12.93;;;7.03;;
82554;SDS011;72219;48.186;11.554;2023-12-29T11:50:36;11.43;;;6.25;;
82554;SDS011;72219;48.186;11.554;2023-12-29T11:53:03;9.27;;;5.72;;
82554;SDS011;72219;48.186;11.554;2023-12-29T11:55:36;11.80;;;6.55;;
82554;SDS011;72219;48.186;11.554;2023-12-29T11:58:04;11.90;;;6.07;;
82554;SDS011;72219;48.186;11.554;2023-12-29T12:00:47;9.95;;;5.68;;
82554;SDS011;72219;48.186;11.554;2023-12-29T12:03:23;12.90;;;5.90;;
82554;SDS011;72219;48.186;11.554;2023-12-29T12:05:51;11.45;;;5.80;;
82554;SDS011;72219;48.186;11.554;2023-12-29T12:08:32;10.35;;;5.65;;
82554;SDS011;72219;48.186;11.554;2023-12-29T12:13:53;7.93;;;5.18;;
82554;SDS011;72219;48.186;11.554;2023-12-29T12:19:10;11.45;;;5.35;;
82554;SDS011;72219;48.186;11.554;2023-12-29T12:21:36;12.80;;;4.82;;
82554;SDS011;72219;48.186;11.554;2023-12-29T12:24:05;9.75;;;5.07;;
82554;SDS011;72219;48.186;11.554;2023-12-29T12:26:32;11.38;;;5.15;;
82554;SDS011;72219;48.186;11.554;2023-12-29T12:28:58;10.13;;;5.18;;
82554;SDS011;72219;48.186;11.554;2023-12-29T12:31:26;11.90;;;5.10;;
82554;SDS011;72219;48.186;11.554;2023-12-29T12:36:25;13.98;;;4.95;;
82554;SDS011;72219;48.186;11.554;2023-12-29T12:38:55;9.52;;;5.05;;
82554;SDS011;72219;48.186;11.554;2023-12-29T12:41:21;11.52;;;4.97;;
82554;SDS011;72219;48.186;11.554;2023-12-29T12:44:02;15.35;;;5.50;;
82554;SDS011;72219;48.186;11.554;2023-12-29T12:46:49;10.77;;;4.78;;
82554;SDS011;72219;48.186;11.554;2023-12-29T12:49:19;11.38;;;4.57;;
82554;SDS011;72219;48.186;11.554;2023-12-29T12:51:52;13.00;;;4.20;;
82554;SDS011;72219;48.186;11.554;2023-12-29T12:54:18;9.07;;;4.18;;
82554;SDS011;72219;48.186;11.554;2023-12-29T12:56:46;12.65;;;4.05;;
82554;SDS011;72219;48.186;11.554;2023-12-29T12:59:13;7.97;;;4.90;;
82554;SDS011;72219;48.186;11.554;2023-12-29T13:01:39;11.50;;;3.97;;
82554;SDS011;72219;48.186;11.554;2023-12-29T13:04:05;9.95;;;4.25;;
82554;SDS011;72219;48.186;11.554;2023-12-29T13:06:34;9.88;;;3.55;;
82554;SDS011;72219;48.186;11.554;2023-12-29T13:09:04;11.27;;;3.45;;
82554;SDS011;72219;48.186;11.554;2023-12-29T13:11:42;13.63;;;3.72;;
82554;SDS011;72219;48.186;11.554;2023-12-29T13:14:18;22.00;;;4.28;;
82554;SDS011;72219;48.186;11.554;2023-12-29T13:16:45;15.50;;;3.95;;
82554;SDS011;72219;48.186;11.554;2023-12-29T13:19:20;7.22;;;3.60;;
82554;SDS011;72219;48.186;11.554;2023-12-29T13:21:50;11.82;;;3.10;;
82554;SDS011;72219;48.186;11.554;2023-12-29T13:24:20;10.98;;;3.75;;
82554;SDS011;72219;48.186;11.554;2023-12-29T13:26:45;11.70;;;3.53;;
82554;SDS011;72219;48.186;11.554;2023-12-29T13:29:17;20.02;;;3.72;;
82554;SDS011;72219;48.186;11.554;2023-12-29T13:31:44;11.23;;;3.63;;
82554;SDS011;72219;48.186;11.554;2023-12-29T13:34:15;21.70;;;3.33;;
82554;SDS011;72219;48.186;11.554;2023-12-29T13:36:53;10.13;;;3.53;;
82554;SDS011;72219;48.186;11.554;2023-12-29T13:39:30;11.98;;;3.03;;
82554;SDS011;72219;48.186;11.554;2023-12-29T13:42:20;7.32;;;3.40;;
82554;SDS011;72219;48.186;11.554;2023-12-29T13:44:48;11.05;;;3.40;;
82554;SDS011;72219;48.186;11.554;2023-12-29T13:47:15;16.60;;;3.83;;
82554;SDS011;72219;48.186;11.554;2023-12-29T13:49:42;13.77;;;3.08;;
82554;SDS011;72219;48.186;11.554;2023-12-29T13:52:08;6.80;;;3.10;;
82554;SDS011;72219;48.186;11.554;2023-12-29T13:54:42;11.18;;;3.72;;
82554;SDS011;72219;48.186;11.554;2023-12-29T13:57:08;9.38;;;3.15;;
82554;SDS011;72219;48.186;11.554;2023-12-29T13:59:34;8.00;;;3.30;;
82554;SDS011;72219;48.186;11.554;2023-12-29T14:02:04;10.27;;;3.30;;
82554;SDS011;72219;48.186;11.554;2023-12-29T14:04:46;10.63;;;3.55;;
82554;SDS011;72219;48.186;11.554;2023-12-29T14:07:11;10.90;;;3.75;;
82554;SDS011;72219;48.186;11.554;2023-12-29T14:09:38;10.10;;;3.20;;
82554;SDS011;72219;48.186;11.554;2023-12-29T14:12:03;16.63;;;3.15;;
82554;SDS011;72219;48.186;11.554;2023-12-29T14:14:30;9.43;;;3.08;;
82554;SDS011;72219;48.186;11.554;2023-12-29T14:16:56;7.75;;;2.58;;
82554;SDS011;72219;48.186;11.554;2023-12-29T14:19:22;11.75;;;3.65;;
82554;SDS011;72219;48.186;11.554;2023-12-29T14:21:49;9.50;;;3.00;;
82554;SDS011;72219;48.186;11.554;2023-12-29T14:24:16;6.68;;;2.92;;
82554;SDS011;72219;48.186;11.554;2023-12-29T14:26:43;10.40;;;3.53;;
82554;SDS011;72219;48.186;11.554;2023-12-29T14:29:18;7.88;;;3.10;;
82554;SDS011;72219;48.186;11.554;2023-12-29T14:31:44;5.55;;;3.03;;
82554;SDS011;72219;48.186;11.554;2023-12-29T14:34:11;14.50;;;3.78;;
82554;SDS011;72219;48.186;11.554;2023-12-29T14:36:38;6.80;;;3.13;;
82554;SDS011;72219;48.186;11.554;2023-12-29T14:39:06;7.32;;;3.10;;
82554;SDS011;72219;48.186;11.554;2023-12-29T14:41:33;5.40;;;2.63;;
82554;SDS011;72219;48.186;11.554;2023-12-29T14:43:58;7.28;;;3.63;;
82554;SDS011;72219;48.186;11.554;2023-12-29T14:46:25;8.00;;;2.83;;
82554;SDS011;72219;48.186;11.554;2023-12-29T14:48:51;6.97;;;2.58;;
82554;SDS011;72219;48.186;11.554;2023-12-29T14:51:18;7.53;;;2.70;;
82554;SDS011;72219;48.186;11.554;2023-12-29T14:53:44;4.63;;;2.60;;